Time;durP1;ratioP1;P1;durP2;ratioP2;P2;SDS_P1;SDS_P2;PMS_P1;PMS_P2;Temp;Humidity;BMP_temperature;BMP_pressure;BME280_temperature;BME280_humidity;BME280_pressure;Samples;Min_cycle;Max_cycle;Signal;HPM_P1;HPM_P2
2021/07/11 00:00:07;;;;;;;17.67;14.07;;;;;;;21.95;69.53;99876.86;1754325;81;21138;-73
2021/07/11 00:02:34;;;;;;;13.83;11.68;;;;;;;22.11;69.28;99879.36;1748683;81;21000;-73
2021/07/11 00:05:01;;;;;;;15.95;11.50;;;;;;;22.18;69.10;99878.88;1717022;82;21488;-74
2021/07/11 00:07:30;;;;;;;11.97;10.63;;;;;;;22.26;68.82;99878.07;1749571;80;21535;-72
2021/07/11 00:09:57;;;;;;;19.70;14.10;;;;;;;22.16;69.00;99879.76;1753722;81;21054;-75
2021/07/11 00:12:25;;;;;;;14.03;11.57;;;;;;;22.05;69.90;99882.03;1731799;81;21172;-70
2021/07/11 00:14:52;;;;;;;15.60;13.48;;;;;;;22.02;69.83;99886.77;1745506;81;21002;-75
2021/07/11 00:17:18;;;;;;;14.93;11.53;;;;;;;21.91;70.42;99882.71;1753156;81;20935;-77
2021/07/11 00:19:45;;;;;;;10.98;9.95;;;;;;;21.94;70.24;99879.35;1753217;81;21045;-74
2021/07/11 00:22:11;;;;;;;13.03;9.65;;;;;;;21.86;70.45;99884.23;1753514;81;21045;-72
2021/07/11 00:24:40;;;;;;;14.00;10.18;;;;;;;21.74;70.75;99875.81;1731976;81;21062;-74
2021/07/11 00:27:09;;;;;;;16.42;12.00;;;;;;;21.81;70.69;99878.09;1753470;81;20974;-72
2021/07/11 00:29:35;;;;;;;16.35;10.80;;;;;;;21.82;70.61;99881.09;1732787;81;21484;-71
2021/07/11 00:32:03;;;;;;;15.63;10.95;;;;;;;21.87;70.97;99880.94;1733543;81;21028;-72
2021/07/11 00:34:29;;;;;;;12.70;11.05;;;;;;;22.02;70.19;99875.00;1740270;81;21046;-73
2021/07/11 00:36:58;;;;;;;18.67;10.43;;;;;;;22.01;70.26;99875.59;1740078;82;21108;-74
2021/07/11 00:39:25;;;;;;;13.78;9.93;;;;;;;22.08;70.11;99875.09;1725128;81;21030;-73
2021/07/11 00:41:51;;;;;;;10.13;9.03;;;;;;;22.10;68.69;99873.66;1752001;81;21551;-74
2021/07/11 00:44:17;;;;;;;10.70;8.48;;;;;;;22.26;68.42;99874.52;1747229;81;21562;-73
2021/07/11 00:46:46;;;;;;;9.45;8.23;;;;;;;22.32;68.01;99877.34;1742671;81;21065;-73
2021/07/11 00:49:14;;;;;;;12.20;8.33;;;;;;;22.35;67.80;99872.61;1732609;81;22339;-74
2021/07/11 00:51:40;;;;;;;12.88;8.20;;;;;;;22.40;67.54;99873.23;1755717;81;20925;-74
2021/07/11 00:54:07;;;;;;;10.18;8.65;;;;;;;22.46;67.84;99866.45;1756041;81;20980;-76
2021/07/11 00:56:34;;;;;;;11.38;7.92;;;;;;;22.57;67.47;99870.48;1755755;81;21027;-76
2021/07/11 00:59:01;;;;;;;9.73;7.80;;;;;;;22.63;67.21;99873.06;1755446;81;21007;-75
2021/07/11 01:01:43;;;;;;;10.00;8.35;;;;;;;22.66;67.25;99869.09;1753292;81;21055;-74
2021/07/11 01:04:23;;;;;;;12.58;8.83;;;;;;;22.71;67.17;99871.70;1732001;81;21524;-75
2021/07/11 01:06:53;;;;;;;10.82;9.75;;;;;;;22.75;66.94;99870.47;1752243;81;21054;-71
2021/07/11 01:09:32;;;;;;;12.30;9.40;;;;;;;22.78;66.86;99869.25;1732606;81;21039;-72
2021/07/11 01:12:07;;;;;;;11.20;8.73;;;;;;;22.84;66.78;99867.14;1734531;81;20972;-72
2021/07/11 01:14:36;;;;;;;9.15;8.03;;;;;;;22.91;66.48;99871.57;1725797;83;21802;-73
2021/07/11 01:17:05;;;;;;;9.48;8.35;;;;;;;23.05;65.72;99874.91;1750087;81;21531;-72
2021/07/11 01:19:59;;;;;;;12.07;9.35;;;;;;;23.12;64.60;99870.30;1733578;81;20979;-72
2021/07/11 01:22:30;;;;;;;8.58;7.72;;;;;;;23.23;63.84;99868.22;1731801;81;21010;-72
2021/07/11 01:25:12;;;;;;;10.23;8.70;;;;;;;23.35;62.69;99869.72;1753265;81;21023;-72
2021/07/11 01:27:38;;;;;;;9.65;8.63;;;;;;;23.42;63.53;99867.80;1753234;81;21177;-72
2021/07/11 01:30:07;;;;;;;10.72;8.55;;;;;;;23.31;62.81;99859.13;1752819;81;21059;-72
2021/07/11 01:32:36;;;;;;;9.43;8.45;;;;;;;23.31;63.11;99863.25;1731673;81;21554;-74
2021/07/11 01:35:05;;;;;;;12.80;9.13;;;;;;;23.29;63.14;99861.98;1753158;81;21034;-74
2021/07/11 01:37:34;;;;;;;12.53;9.33;;;;;;;23.16;64.83;99869.88;1756955;81;21515;-72
2021/07/11 01:40:07;;;;;;;13.68;9.18;;;;;;;22.97;65.23;99868.90;1754186;81;20923;-72
2021/07/11 01:42:35;;;;;;;15.50;11.93;;;;;;;22.87;65.97;99865.13;1755983;81;21433;-73
2021/07/11 01:45:07;;;;;;;18.85;11.55;;;;;;;22.74;65.72;99861.44;1755871;81;20963;-73
2021/07/11 01:47:35;;;;;;;17.60;11.18;;;;;;;22.65;65.92;99863.36;1755834;81;20984;-75
2021/07/11 01:50:05;;;;;;;15.83;10.53;;;;;;;22.59;66.18;99859.17;1753720;81;21429;-73
2021/07/11 01:52:32;;;;;;;14.28;9.40;;;;;;;22.57;66.21;99865.56;1745804;81;21250;-74
2021/07/11 01:54:58;;;;;;;10.18;8.93;;;;;;;22.57;66.25;99861.45;1740065;82;21082;-74
2021/07/11 01:57:27;;;;;;;12.05;10.03;;;;;;;22.55;66.17;99863.14;1740377;82;21050;-74
2021/07/11 01:59:54;;;;;;;13.60;9.30;;;;;;;22.55;66.28;99860.39;1747967;81;21046;-73
2021/07/11 02:02:22;;;;;;;13.30;9.05;;;;;;;22.52;66.45;99865.73;1751997;81;21500;-74
2021/07/11 02:04:52;;;;;;;13.32;9.85;;;;;;;22.45;66.73;99869.52;1751121;81;20905;-73
2021/07/11 02:07:21;;;;;;;11.40;8.70;;;;;;;22.40;66.87;99872.42;1751542;82;21055;-73
2021/07/11 02:09:48;;;;;;;9.38;8.50;;;;;;;22.33;67.10;99872.12;1754063;81;20971;-72
2021/07/11 02:12:16;;;;;;;13.55;9.50;;;;;;;22.25;67.35;99872.94;1755829;81;21059;-73
2021/07/11 02:14:49;;;;;;;10.40;7.58;;;;;;;22.25;67.12;99877.85;1749768;81;27011;-73
2021/07/11 02:17:20;;;;;;;12.75;9.05;;;;;;;22.30;66.88;99874.92;1746531;81;20984;-73
2021/07/11 02:19:48;;;;;;;15.55;10.53;;;;;;;22.33;66.78;99880.34;1751357;81;20943;-73
2021/07/11 02:22:15;;;;;;;23.70;15.35;;;;;;;22.35;66.88;99884.35;1752979;81;21038;-72
2021/07/11 02:24:43;;;;;;;13.30;11.30;;;;;;;22.35;67.11;99882.20;1731752;81;20974;-73
2021/07/11 02:27:11;;;;;;;17.48;10.72;;;;;;;22.35;67.20;99887.69;1752717;81;21054;-73
2021/07/11 02:29:41;;;;;;;11.88;9.80;;;;;;;22.33;67.18;99886.63;1733087;81;21352;-73
2021/07/11 02:32:09;;;;;;;11.73;9.78;;;;;;;22.35;67.18;99889.05;1733936;81;21043;-72
2021/07/11 02:34:39;;;;;;;9.38;8.45;;;;;;;22.32;67.17;99885.57;1754645;81;21522;-73
2021/07/11 02:37:14;;;;;;;15.15;9.38;;;;;;;22.36;67.09;99883.23;1753225;81;20947;-72
2021/07/11 02:39:45;;;;;;;13.43;11.40;;;;;;;22.49;66.92;99888.32;1739585;81;36805;-72
2021/07/11 02:42:14;;;;;;;14.00;8.90;;;;;;;22.66;66.06;99888.28;1756207;80;23711;-71
2021/07/11 02:44:47;;;;;;;17.15;8.93;;;;;;;22.69;65.35;99889.56;1757200;81;21038;-72
2021/07/11 02:47:25;;;;;;;17.40;10.43;;;;;;;22.55;65.78;99897.97;1752818;81;21075;-73
2021/07/11 02:49:57;;;;;;;13.55;9.35;;;;;;;22.46;66.03;99893.87;1712497;83;21073;-74
2021/07/11 02:52:23;;;;;;;10.60;8.98;;;;;;;22.38;66.42;99893.31;1715435;81;21002;-74
2021/07/11 02:54:58;;;;;;;13.40;9.23;;;;;;;22.29;66.69;99897.19;1752919;81;21296;-73
2021/07/11 02:57:28;;;;;;;9.23;8.35;;;;;;;22.24;66.74;99895.42;1752995;81;20942;-73
2021/07/11 02:59:55;;;;;;;10.45;8.95;;;;;;;22.21;66.78;99894.67;1753301;81;20923;-73
2021/07/11 03:02:23;;;;;;;13.68;8.93;;;;;;;22.22;66.72;99889.44;1731733;81;21039;-72
2021/07/11 03:04:52;;;;;;;9.08;8.00;;;;;;;22.23;66.31;99886.95;1731804;81;21006;-73
2021/07/11 03:07:19;;;;;;;9.93;8.45;;;;;;;22.24;66.09;99891.30;1753033;81;21068;-72
2021/07/11 03:09:45;;;;;;;11.45;8.18;;;;;;;22.30;65.62;99892.73;1748426;81;21293;-72
2021/07/11 03:12:16;;;;;;;11.03;7.47;;;;;;;22.39;65.48;99887.27;1753125;81;21035;-73
2021/07/11 03:14:49;;;;;;;9.75;6.78;;;;;;;22.47;64.72;99896.86;1753227;81;21558;-72
2021/07/11 03:17:21;;;;;;;7.85;6.80;;;;;;;22.50;64.26;99900.88;1729879;81;21530;-72
2021/07/11 03:19:52;;;;;;;10.32;6.53;;;;;;;22.51;63.58;99901.13;1753277;81;21026;-72
2021/07/11 03:22:23;;;;;;;7.97;7.17;;;;;;;22.54;63.33;99903.23;1731872;81;20990;-72
2021/07/11 03:24:50;;;;;;;8.23;7.42;;;;;;;22.59;63.25;99894.81;1707522;81;21054;-72
2021/07/11 03:27:17;;;;;;;7.62;6.90;;;;;;;22.66;62.68;99898.45;1752272;81;21085;-71
2021/07/11 03:30:03;;;;;;;8.05;7.08;;;;;;;22.77;62.54;99894.27;1753690;81;20950;-72
2021/07/11 03:32:37;;;;;;;8.53;6.97;;;;;;;22.79;62.43;99890.06;1753099;81;21292;-71
2021/07/11 03:35:06;;;;;;;7.47;6.78;;;;;;;22.83;62.30;99889.64;1753250;81;20963;-72
2021/07/11 03:37:36;;;;;;;8.20;6.42;;;;;;;22.87;62.07;99896.11;1753375;81;21037;-71
2021/07/11 03:40:02;;;;;;;11.93;7.05;;;;;;;22.88;61.99;99896.33;1756917;81;21542;-72
2021/07/11 03:42:40;;;;;;;7.65;6.67;;;;;;;22.91;61.99;99892.95;1732346;81;21018;-72
2021/07/11 03:45:10;;;;;;;12.60;6.65;;;;;;;22.97;62.05;99891.63;1753023;81;21062;-71
2021/07/11 03:47:42;;;;;;;10.43;6.90;;;;;;;23.08;61.64;99892.08;1731985;81;20995;-71
2021/07/11 03:50:11;;;;;;;11.55;6.50;;;;;;;23.20;60.76;99896.90;1754917;81;20979;-73
2021/07/11 03:52:43;;;;;;;8.38;7.33;;;;;;;23.25;60.07;99892.04;1747682;81;21018;-71
2021/07/11 03:55:09;;;;;;;11.38;7.17;;;;;;;23.34;60.05;99899.67;1740207;82;21034;-71
2021/07/11 03:57:35;;;;;;;11.08;7.70;;;;;;;23.38;60.75;99889.63;1740001;82;21329;-71
2021/07/11 04:00:02;;;;;;;12.47;6.87;;;;;;;23.45;60.65;99894.66;1725326;81;20998;-72
2021/07/11 04:02:32;;;;;;;13.28;7.62;;;;;;;23.48;60.20;99884.94;1752950;81;21038;-72
2021/07/11 04:04:59;;;;;;;12.33;7.30;;;;;;;23.50;60.07;99888.17;1753286;81;20947;-72
2021/07/11 04:07:26;;;;;;;7.58;6.17;;;;;;;23.54;59.57;99891.30;1752839;81;20986;-74
2021/07/11 04:09:53;;;;;;;8.88;7.12;;;;;;;23.61;59.27;99894.31;1754272;81;21004;-70
2021/07/11 04:12:19;;;;;;;8.58;6.92;;;;;;;23.67;59.12;99888.06;1753165;81;20935;-71
2021/07/11 04:14:46;;;;;;;8.43;7.53;;;;;;;23.78;58.52;99890.67;1752378;81;21444;-71
2021/07/11 04:17:12;;;;;;;8.05;6.65;;;;;;;23.88;58.32;99893.03;1732119;81;21535;-71
2021/07/11 04:19:42;;;;;;;7.97;6.55;;;;;;;24.01;57.65;99891.97;1731854;81;21022;-70
2021/07/11 04:22:14;;;;;;;6.15;5.55;;;;;;;24.11;57.27;99886.64;1753075;81;21069;-71
2021/07/11 04:24:42;;;;;;;6.33;5.72;;;;;;;24.21;57.17;99889.83;1753130;81;21075;-71
2021/07/11 04:27:10;;;;;;;8.70;6.12;;;;;;;24.26;56.97;99895.13;1756678;81;21520;-73
2021/07/11 04:29:36;;;;;;;11.68;10.38;;;;;;;24.32;57.05;99891.58;1729426;81;21047;-72
2021/07/11 04:32:04;;;;;;;9.93;7.65;;;;;;;24.39;56.64;99890.48;1755880;81;20984;-73
2021/07/11 04:34:34;;;;;;;8.25;6.67;;;;;;;24.51;56.62;99889.75;1756133;81;21198;-73
2021/07/11 04:37:04;;;;;;;8.68;7.10;;;;;;;24.63;56.65;99893.91;1756074;81;20928;-71
2021/07/11 04:39:32;;;;;;;11.30;6.75;;;;;;;24.71;56.07;99885.56;1732780;81;20994;-73
2021/07/11 04:42:00;;;;;;;6.47;5.22;;;;;;;24.76;55.67;99885.35;1753088;81;20970;-72
2021/07/11 04:44:27;;;;;;;9.38;6.53;;;;;;;24.81;54.96;99886.27;1753262;81;21053;-72
2021/07/11 04:46:55;;;;;;;8.63;6.45;;;;;;;24.85;55.16;99892.13;1753412;81;21713;-72
2021/07/11 04:49:22;;;;;;;7.97;5.62;;;;;;;24.86;55.58;99882.73;1751857;81;20988;-72
2021/07/11 04:51:52;;;;;;;6.60;5.40;;;;;;;24.89;55.53;99886.20;1752982;81;20991;-73
2021/07/11 04:54:19;;;;;;;8.00;6.33;;;;;;;24.97;54.96;99889.45;1753252;81;21030;-72
2021/07/11 04:56:45;;;;;;;5.75;5.25;;;;;;;25.10;54.80;99881.45;1753268;81;21003;-72
2021/07/11 04:59:12;;;;;;;5.92;4.85;;;;;;;25.25;54.46;99883.30;1731747;81;21164;-72
2021/07/11 05:01:40;;;;;;;7.87;5.17;;;;;;;25.38;54.14;99882.16;1753095;81;21560;-71
2021/07/11 05:04:06;;;;;;;6.58;5.62;;;;;;;25.48;53.97;99881.70;1753105;81;21569;-71
2021/07/11 05:06:32;;;;;;;7.10;4.92;;;;;;;25.56;54.04;99887.12;1753172;81;21038;-73
2021/07/11 05:09:00;;;;;;;5.35;4.83;;;;;;;25.66;54.51;99884.47;1754584;81;20967;-72
2021/07/11 05:11:27;;;;;;;8.78;5.17;;;;;;;25.74;53.57;99884.14;1724381;82;21882;-71
2021/07/11 05:13:53;;;;;;;6.25;4.65;;;;;;;25.78;54.19;99880.34;1750546;81;21018;-73
2021/07/11 05:16:21;;;;;;;8.18;5.58;;;;;;;25.80;54.37;99884.14;1685214;84;21063;-71
2021/07/11 05:18:49;;;;;;;8.15;6.12;;;;;;;25.85;54.45;99880.55;1732440;81;21028;-75
2021/07/11 05:21:17;;;;;;;6.83;4.85;;;;;;;25.93;53.72;99881.02;1753999;81;21006;-72
2021/07/11 05:23:45;;;;;;;13.83;5.58;;;;;;;26.02;53.54;99883.63;1753158;81;20993;-72
2021/07/11 05:26:12;;;;;;;7.17;5.28;;;;;;;26.11;53.65;99879.36;1756777;81;21065;-71
2021/07/11 05:28:39;;;;;;;9.15;5.70;;;;;;;26.19;52.75;99886.11;1757281;81;21499;-73
2021/07/11 05:31:08;;;;;;;8.70;5.08;;;;;;;26.24;53.17;99885.09;1753200;81;20966;-73
2021/07/11 05:33:34;;;;;;;7.87;5.33;;;;;;;26.24;53.74;99891.98;1747494;81;21014;-72
2021/07/11 05:36:01;;;;;;;12.65;7.33;;;;;;;26.30;53.53;99890.02;1749394;81;21264;-73
2021/07/11 05:38:27;;;;;;;6.03;5.53;;;;;;;26.38;53.12;99897.34;1721546;83;20978;-72
2021/07/11 05:40:53;;;;;;;5.87;5.28;;;;;;;26.48;52.08;99897.41;1723138;81;22194;-71
2021/07/11 05:43:19;;;;;;;7.10;5.58;;;;;;;26.56;49.94;99897.86;1740381;82;21019;-73
2021/07/11 05:45:46;;;;;;;7.47;6.58;;;;;;;26.55;50.29;99901.77;1741201;81;21045;-73
2021/07/11 05:48:12;;;;;;;9.08;6.97;;;;;;;26.54;51.93;99897.40;1754209;81;21146;-71
2021/07/11 05:50:40;;;;;;;13.83;6.30;;;;;;;26.54;52.45;99903.48;1731948;81;20974;-72
2021/07/11 05:53:10;;;;;;;16.07;9.33;;;;;;;26.56;52.08;99902.58;1745330;81;21026;-70
2021/07/11 05:55:35;;;;;;;7.60;6.90;;;;;;;26.56;52.15;99903.95;1741290;82;21488;-72
2021/07/11 05:58:01;;;;;;;8.48;7.00;;;;;;;26.58;52.12;99903.81;1741487;82;20975;-71
2021/07/11 06:00:28;;;;;;;9.48;6.55;;;;;;;26.63;51.76;99901.37;1741226;82;21969;-70
2021/07/11 06:02:54;;;;;;;11.53;6.65;;;;;;;26.71;51.58;99907.34;1724071;82;20972;-72
2021/07/11 06:05:20;;;;;;;10.75;9.05;;;;;;;26.71;51.37;99907.34;1741223;82;20995;-73
2021/07/11 06:07:48;;;;;;;10.48;6.37;;;;;;;26.69;51.46;99904.13;1741158;82;21082;-70
2021/07/11 06:10:16;;;;;;;14.20;7.37;;;;;;;26.75;51.44;99906.28;1741314;82;21051;-70
2021/07/11 06:12:44;;;;;;;7.92;5.78;;;;;;;26.76;51.31;99902.95;1741491;82;21270;-72
2021/07/11 06:15:10;;;;;;;13.08;7.47;;;;;;;26.79;51.18;99900.28;1741152;82;21581;-72
2021/07/11 06:17:37;;;;;;;15.98;6.62;;;;;;;26.81;51.00;99908.99;1740670;82;21473;-71
2021/07/11 06:20:08;;;;;;;10.38;5.75;;;;;;;26.85;49.47;99909.11;1722216;82;21482;-72
2021/07/11 06:22:35;;;;;;;10.38;6.20;;;;;;;26.87;48.43;99908.19;1740507;82;21019;-70
2021/07/11 06:25:06;;;;;;;16.65;6.05;;;;;;;26.88;48.18;99907.85;1740273;82;21198;-69
2021/07/11 06:27:32;;;;;;;15.32;6.22;;;;;;;26.91;47.71;99908.31;1740019;82;21558;-70
2021/07/11 06:29:58;;;;;;;12.07;5.20;;;;;;;26.95;47.66;99911.97;1740451;82;21476;-73
2021/07/11 06:32:24;;;;;;;7.78;5.67;;;;;;;26.97;47.49;99904.11;1733993;82;21102;-74
2021/07/11 06:34:51;;;;;;;7.58;5.58;;;;;;;27.04;48.09;99905.12;1732221;82;21030;-73
2021/07/11 06:37:17;;;;;;;14.47;5.60;;;;;;;27.13;48.16;99906.33;1729854;82;21112;-71
2021/07/11 06:39:44;;;;;;;8.88;6.72;;;;;;;27.18;48.27;99905.49;1733911;82;20971;-72
2021/07/11 06:42:10;;;;;;;6.60;5.95;;;;;;;27.25;48.05;99902.89;1729511;82;21516;-72
2021/07/11 06:44:36;;;;;;;9.95;6.95;;;;;;;27.27;47.76;99897.02;1730909;82;21042;-74
2021/07/11 06:47:04;;;;;;;7.03;5.87;;;;;;;27.28;47.96;99906.92;1724079;82;21053;-72
2021/07/11 06:49:31;;;;;;;9.50;6.42;;;;;;;27.27;48.33;99903.36;1726463;82;22161;-71
2021/07/11 06:51:57;;;;;;;7.62;6.72;;;;;;;27.31;47.96;99900.67;1732832;82;21091;-73
2021/07/11 06:54:24;;;;;;;8.45;5.42;;;;;;;27.36;47.28;99897.64;1740727;82;21153;-72
2021/07/11 06:56:51;;;;;;;7.67;5.25;;;;;;;27.42;47.18;99903.70;1741102;82;20976;-71
2021/07/11 06:59:17;;;;;;;5.47;4.47;;;;;;;27.41;47.04;99895.99;1748328;82;20974;-70
2021/07/11 07:01:45;;;;;;;8.00;5.50;;;;;;;27.44;46.08;99897.23;1741491;82;21870;-70
2021/07/11 07:04:11;;;;;;;9.98;5.90;;;;;;;27.50;45.67;99898.02;1724122;82;21044;-71
2021/07/11 07:06:37;;;;;;;6.67;5.35;;;;;;;27.54;45.87;99896.72;1738904;82;20984;-72
2021/07/11 07:09:04;;;;;;;10.93;6.60;;;;;;;27.56;45.76;99891.65;1723012;82;20941;-71
2021/07/11 07:11:30;;;;;;;6.47;5.87;;;;;;;27.61;45.99;99892.77;1720122;82;21092;-72
2021/07/11 07:13:57;;;;;;;5.45;4.95;;;;;;;27.64;46.04;99891.45;1723609;82;21060;-72
2021/07/11 07:16:23;;;;;;;6.47;5.12;;;;;;;27.70;45.47;99896.13;1724174;82;20971;-72
2021/07/11 07:18:51;;;;;;;6.25;4.22;;;;;;;27.79;44.21;99891.78;1741309;82;20939;-73
2021/07/11 07:21:17;;;;;;;6.05;5.50;;;;;;;27.90;43.94;99887.31;1724008;82;21078;-73
2021/07/11 07:23:44;;;;;;;7.37;5.85;;;;;;;28.00;43.66;99894.47;1741222;82;20976;-73
2021/07/11 07:26:11;;;;;;;7.78;6.17;;;;;;;28.16;43.86;99899.95;1741217;82;22164;-73
2021/07/11 07:28:38;;;;;;;8.50;6.08;;;;;;;28.28;43.47;99896.27;1741531;82;21587;-74
2021/07/11 07:31:04;;;;;;;7.90;5.25;;;;;;;28.29;43.73;99893.15;1741518;82;20995;-72
2021/07/11 07:33:31;;;;;;;6.10;5.15;;;;;;;28.35;43.88;99893.63;1741187;82;21016;-72
2021/07/11 07:35:57;;;;;;;10.45;4.90;;;;;;;28.40;43.91;99894.15;1749104;82;21034;-72
2021/07/11 07:38:23;;;;;;;6.22;4.80;;;;;;;28.53;44.33;99894.82;1723752;82;21416;-71
2021/07/11 07:40:50;;;;;;;7.95;5.45;;;;;;;28.64;43.63;99893.05;1749160;82;21014;-72
2021/07/11 07:43:16;;;;;;;6.33;4.87;;;;;;;28.67;43.29;99889.56;1741232;82;20985;-71
2021/07/11 07:45:44;;;;;;;6.62;5.30;;;;;;;28.70;42.69;99891.59;1749359;82;21486;-71
2021/07/11 07:48:11;;;;;;;7.28;3.77;;;;;;;28.75;41.58;99889.94;1741429;82;21554;-70
2021/07/11 07:50:38;;;;;;;5.10;4.70;;;;;;;28.80;41.20;99898.53;1741384;82;21172;-71
2021/07/11 07:53:05;;;;;;;5.40;4.60;;;;;;;28.80;41.25;99896.56;1740790;82;21010;-72
2021/07/11 07:55:33;;;;;;;5.80;4.58;;;;;;;28.84;40.90;99887.73;1716832;82;20960;-71
2021/07/11 07:57:59;;;;;;;5.53;3.90;;;;;;;28.89;39.77;99897.13;1740118;82;21547;-70
2021/07/11 08:00:26;;;;;;;6.90;4.10;;;;;;;28.96;39.80;99882.62;1740355;82;20998;-71
2021/07/11 08:02:54;;;;;;;5.37;3.83;;;;;;;29.08;40.08;99882.43;1741862;81;21550;-71
2021/07/11 08:05:20;;;;;;;5.00;4.00;;;;;;;29.18;40.84;99880.44;1753034;81;20930;-71
2021/07/11 08:07:47;;;;;;;5.40;4.83;;;;;;;29.21;39.86;99879.69;1753411;81;21034;-72
2021/07/11 08:10:17;;;;;;;4.22;3.83;;;;;;;29.20;39.16;99882.84;1753168;81;21914;-70
2021/07/11 08:12:46;;;;;;;7.42;4.05;;;;;;;29.14;38.85;99878.19;1743675;81;21615;-71
2021/07/11 08:15:19;;;;;;;7.00;3.17;;;;;;;29.16;40.23;99877.83;1740217;82;20915;-71
2021/07/11 08:17:47;;;;;;;7.30;4.33;;;;;;;29.21;39.27;99878.30;1742561;81;21014;-71
2021/07/11 08:20:15;;;;;;;5.20;3.92;;;;;;;29.25;40.36;99875.61;1753331;81;21017;-72
2021/07/11 08:22:42;;;;;;;3.92;3.62;;;;;;;29.35;40.45;99881.95;1753411;81;21527;-72
2021/07/11 08:25:10;;;;;;;4.87;3.95;;;;;;;29.44;38.94;99886.06;1753152;81;20994;-71
2021/07/11 08:27:37;;;;;;;9.05;4.22;;;;;;;29.50;39.24;99880.98;1731970;81;22211;-71
2021/07/11 08:30:08;;;;;;;10.40;4.83;;;;;;;29.55;39.35;99884.83;1753328;81;21484;-71
2021/07/11 08:32:34;;;;;;;5.80;4.37;;;;;;;29.62;39.56;99884.95;1753324;81;20974;-72
2021/07/11 08:35:03;;;;;;;7.20;4.70;;;;;;;29.71;38.77;99874.97;1745387;81;21894;-71
2021/07/11 08:37:30;;;;;;;6.40;4.62;;;;;;;29.73;39.07;99874.03;1740026;82;21046;-72
2021/07/11 08:39:57;;;;;;;6.08;4.50;;;;;;;29.79;39.61;99874.70;1716834;82;21055;-71
2021/07/11 08:42:26;;;;;;;7.67;4.50;;;;;;;29.92;40.16;99866.20;1740132;82;20923;-72
2021/07/11 08:44:54;;;;;;;11.30;4.72;;;;;;;30.03;39.61;99872.67;1740297;82;20990;-72
2021/07/11 08:47:22;;;;;;;6.97;4.70;;;;;;;30.14;39.19;99865.30;1742385;81;21018;-71
2021/07/11 08:49:48;;;;;;;5.78;4.20;;;;;;;30.23;39.24;99861.64;1753684;81;21061;-70
2021/07/11 08:52:16;;;;;;;5.53;4.50;;;;;;;30.29;39.08;99869.86;1731591;81;21291;-71
2021/07/11 08:54:42;;;;;;;8.43;4.85;;;;;;;30.29;38.81;99867.89;1753268;81;21499;-70
2021/07/11 08:57:11;;;;;;;5.05;4.40;;;;;;;30.33;38.34;99865.14;1752044;81;21514;-71
2021/07/11 08:59:39;;;;;;;5.17;4.67;;;;;;;30.38;38.52;99866.20;1753300;81;21003;-69
2021/07/11 09:02:06;;;;;;;6.45;4.47;;;;;;;30.45;38.06;99864.91;1752371;81;21022;-70
2021/07/11 09:04:44;;;;;;;6.40;4.42;;;;;;;30.51;37.96;99863.41;1731804;81;21333;-72
2021/07/11 09:07:22;;;;;;;6.03;4.67;;;;;;;30.56;37.69;99871.39;1731684;81;21063;-71
2021/07/11 09:09:55;;;;;;;8.60;4.80;;;;;;;30.59;37.39;99864.30;1753531;81;20935;-70
2021/07/11 09:12:22;;;;;;;9.15;5.42;;;;;;;30.62;37.78;99855.20;1753093;81;20986;-71
2021/07/11 09:14:48;;;;;;;5.22;4.53;;;;;;;30.69;37.40;99862.23;1731851;81;21034;-72
2021/07/11 09:17:15;;;;;;;6.90;4.47;;;;;;;30.68;37.97;99860.05;1753110;81;21020;-70
2021/07/11 09:19:48;;;;;;;11.20;5.30;;;;;;;30.65;37.25;99864.95;1753204;81;21025;-71
2021/07/11 09:22:22;;;;;;;5.53;4.08;;;;;;;30.54;37.64;99865.44;1752528;81;20986;-72
2021/07/11 09:24:53;;;;;;;8.03;5.62;;;;;;;30.51;37.76;99863.41;1725139;81;21042;-71
2021/07/11 09:27:28;;;;;;;7.08;4.05;;;;;;;30.49;37.73;99858.84;1753019;81;20970;-71
2021/07/11 09:30:00;;;;;;;4.75;4.30;;;;;;;30.50;37.74;99861.02;1753326;81;21230;-72
2021/07/11 09:32:33;;;;;;;7.55;5.60;;;;;;;30.54;37.60;99847.98;1746608;81;21785;-71
2021/07/11 09:35:16;;;;;;;9.53;5.55;;;;;;;30.54;37.19;99846.59;1742027;81;20991;-72
2021/07/11 09:37:45;;;;;;;6.87;5.17;;;;;;;30.58;37.59;99846.03;1731285;81;21018;-70
2021/07/11 09:40:15;;;;;;;7.03;4.80;;;;;;;30.65;37.29;99846.09;1753365;81;21042;-71
2021/07/11 09:42:44;;;;;;;5.50;4.35;;;;;;;30.73;37.29;99849.17;1732598;81;21194;-72
2021/07/11 09:45:28;;;;;;;9.35;4.90;;;;;;;30.82;37.38;99843.30;1753141;81;21676;-70
2021/07/11 09:48:06;;;;;;;5.67;5.17;;;;;;;30.87;37.37;99841.57;1724831;82;21029;-71
2021/07/11 09:50:34;;;;;;;11.30;5.40;;;;;;;30.88;37.15;99841.20;1726865;83;20978;-71
2021/07/11 09:53:01;;;;;;;5.53;4.87;;;;;;;30.86;37.12;99839.38;1721696;83;21034;-70
2021/07/11 09:55:32;;;;;;;5.83;4.58;;;;;;;30.84;37.50;99843.73;1724133;82;21207;-71
2021/07/11 09:58:00;;;;;;;26.27;23.77;;;;;;;30.81;35.42;99846.67;1741287;82;21038;-71
2021/07/11 10:00:30;;;;;;;7.72;6.03;;;;;;;30.81;35.81;99836.95;1741427;82;20973;-71
2021/07/11 10:03:11;;;;;;;5.55;5.05;;;;;;;30.88;35.62;99837.03;1741458;82;21024;-71
2021/07/11 10:05:37;;;;;;;8.43;5.35;;;;;;;31.04;36.30;99832.03;1741307;82;21578;-71
2021/07/11 10:08:03;;;;;;;5.08;4.60;;;;;;;31.15;36.46;99828.76;1741393;82;21550;-70
2021/07/11 10:10:32;;;;;;;9.58;4.78;;;;;;;31.27;36.67;99824.09;1741141;82;20939;-71
2021/07/11 10:13:00;;;;;;;5.33;4.83;;;;;;;31.42;36.63;99835.50;1741435;82;21002;-70
2021/07/11 10:15:30;;;;;;;11.50;5.85;;;;;;;31.49;36.49;99833.58;1741516;82;21026;-73
2021/07/11 10:18:06;;;;;;;5.47;5.00;;;;;;;31.49;36.28;99836.36;1741284;82;21555;-72
2021/07/11 10:20:39;;;;;;;7.47;5.70;;;;;;;31.50;35.97;99827.44;1741708;82;21049;-70
2021/07/11 10:23:07;;;;;;;8.05;5.22;;;;;;;31.54;35.65;99826.27;1724416;82;21527;-71
2021/07/11 10:25:36;;;;;;;5.33;4.83;;;;;;;31.60;35.06;99832.30;1724230;82;20996;-70
2021/07/11 10:28:11;;;;;;;13.48;4.78;;;;;;;31.69;34.85;99827.78;1741292;82;21022;-70
2021/07/11 10:30:43;;;;;;;11.30;5.70;;;;;;;31.76;34.63;99836.95;1741377;82;21086;-71
2021/07/11 10:33:18;;;;;;;5.87;4.65;;;;;;;31.84;34.21;99840.59;1741792;82;21129;-71
2021/07/11 10:36:00;;;;;;;6.45;5.62;;;;;;;31.85;33.85;99843.55;1724229;82;20979;-71
2021/07/11 10:38:41;;;;;;;7.22;5.15;;;;;;;31.77;34.26;99837.16;1741519;82;21039;-71
2021/07/11 10:41:14;;;;;;;7.53;5.50;;;;;;;31.84;34.62;99840.00;1708753;83;20951;-71
2021/07/11 10:43:45;;;;;;;5.42;4.92;;;;;;;31.89;34.25;99840.22;1712444;83;22549;-70
2021/07/11 10:46:12;;;;;;;4.97;4.40;;;;;;;31.86;34.06;99835.41;1694108;83;21321;-71
2021/07/11 10:48:40;;;;;;;6.47;5.15;;;;;;;31.78;33.89;99835.18;1728858;82;21098;-72
2021/07/11 10:51:06;;;;;;;5.10;4.67;;;;;;;31.56;34.18;99826.69;1741440;82;21058;-73
2021/07/11 10:53:37;;;;;;;5.65;4.33;;;;;;;31.59;33.72;99832.09;1725254;81;21042;-75
2021/07/11 10:56:05;;;;;;;8.40;5.12;;;;;;;31.68;33.82;99836.71;1753056;81;21487;-75
2021/07/11 10:58:39;;;;;;;10.78;5.53;;;;;;;31.74;35.00;99826.02;1697045;82;21280;-73
2021/07/11 11:01:22;;;;;;;5.78;4.72;;;;;;;31.88;35.20;99815.77;1740054;82;21025;-71
2021/07/11 11:03:52;;;;;;;10.95;5.20;;;;;;;32.10;34.35;99817.23;1740669;82;20994;-76
2021/07/11 11:06:18;;;;;;;8.50;4.65;;;;;;;32.21;34.06;99814.74;1729439;82;21655;-72
2021/07/11 11:08:47;;;;;;;4.85;4.30;;;;;;;32.25;33.48;99822.51;1698126;80;21075;-76
2021/07/11 11:11:14;;;;;;;10.10;4.92;;;;;;;32.33;32.83;99822.73;1697595;82;21890;-75
2021/07/11 11:13:41;;;;;;;8.93;5.62;;;;;;;32.25;32.27;99821.70;1649443;86;21021;-75
2021/07/11 11:16:20;;;;;;;8.40;5.58;;;;;;;32.23;32.65;99826.89;1627532;86;21079;-76
2021/07/11 11:18:52;;;;;;;6.30;5.72;;;;;;;32.25;32.67;99818.33;1686530;84;20966;-75
2021/07/11 11:21:24;;;;;;;4.33;3.92;;;;;;;32.05;33.48;99822.59;1653417;86;20988;-76
2021/07/11 11:23:54;;;;;;;6.12;4.72;;;;;;;32.10;33.67;99822.25;1653643;86;20932;-74
2021/07/11 11:26:27;;;;;;;4.95;4.35;;;;;;;32.26;33.74;99816.34;1680486;85;21054;-73
2021/07/11 11:28:57;;;;;;;6.03;4.97;;;;;;;32.37;32.98;99808.84;1655160;85;21540;-76
2021/07/11 11:31:32;;;;;;;6.67;5.22;;;;;;;32.35;32.80;99807.83;1670414;85;21202;-79
2021/07/11 11:34:06;;;;;;;7.53;4.55;;;;;;;32.48;32.61;99804.07;1706700;84;21233;-78
2021/07/11 11:36:51;;;;;;;7.03;5.37;;;;;;;32.68;32.15;99807.33;1686703;84;22204;-76